Terminal Aerodrome Forecast
Issued by NWS

Current Version | Previous Version | Text Only | Print | Product List | Glossary Off
Versions: 1 2 3 4 5 6 7 8 9 10 11 12 13 14 15 16 17 18 19 20 21 22

000
FTUS41 KPBZ 160500
TAFHLG
TAF
KHLG 160539Z 1606/1706 VRB03KT P6SM OVC060
     FM160800 34004KT P6SM BKN015
     FM161600 33005KT P6SM BKN050
     FM162200 32007KT P6SM SKC=

USA.gov is the U.S. government's official web portal to all federal, state and local government web resources and services.